Falls Church, Virginia
Current Conditions -  °F | °C
As of 11:52 AM on Friday 24 Oct 2014 (Local Time) from KDCA Reporting Station
Overcast Overcast  
Wind Chill: 64°   Ceiling: 25000
Heat Index: 64°   Visibility: 10mi
Dew Point: 43°   Wind: 9mph
Humidity: 46%   Direction: 320°NW
Pressure: 29.98"   Gusts: NA
Location:  38.89°N, 77.17°W
Report Text: KDCA 241552Z 32008KT 10SM OVC250 18/06 A2998 RMK AO2 SLP150 T01780061
Loading
Personal Weather Stations






























Interactive Weather Map
Tropical Storm Tracking
New forecast layout! Learn more

10-Day Weather Forecast

Advertisements
Track Severe Weather on mobile